Time;durP1;ratioP1;P1;durP2;ratioP2;P2;SDS_P1;SDS_P2;PMS_P1;PMS_P2;Temp;Humidity;BMP_temperature;BMP_pressure;BME280_temperature;BME280_humidity;BME280_pressure;Samples;Min_cycle;Max_cycle;Signal;HPM_P1;HPM_P2
2023/03/27 00:00:37;;;;;;;14.27;12.17;;;;;;;6.54;100.00;1023.53;5091568;28;20211;-60
2023/03/27 00:03:04;;;;;;;15.13;12.43;;;;;;;6.37;100.00;2292.50;5091302;28;20624;-58
2023/03/27 00:05:30;;;;;;;17.70;12.13;;;;;;;6.30;100.00;4197.69;5091408;28;20524;-59
2023/03/27 00:08:00;;;;;;;16.63;12.90;;;;;;;6.40;100.00;4834.56;5091663;28;20192;-59
2023/03/27 00:10:27;;;;;;;17.17;12.27;;;;;;;6.27;100.00;5786.38;5091224;28;20220;-60
2023/03/27 00:12:55;;;;;;;17.63;12.00;;;;;;;6.28;100.00;6104.31;5091559;28;20196;-60
2023/03/27 00:15:23;;;;;;;12.17;11.17;;;;;;;6.37;100.00;6741.66;5093628;28;20239;-60
2023/03/27 00:17:53;;;;;;;12.00;11.03;;;;;;;6.55;100.00;5790.34;5094942;28;20223;-60
2023/03/27 00:20:22;;;;;;;12.77;11.50;;;;;;;6.72;100.00;6747.28;5095100;28;20627;-59
2023/03/27 00:22:54;;;;;;;11.97;11.03;;;;;;;6.90;100.00;6113.59;5095246;28;20199;-59
2023/03/27 00:25:22;;;;;;;15.67;13.90;;;;;;;6.92;100.00;8979.25;5095056;28;20188;-59
2023/03/27 00:27:49;;;;;;;16.53;15.00;;;;;;;6.61;100.00;12795.56;5094967;28;20249;-59
2023/03/27 00:30:16;;;;;;;19.10;14.03;;;;;;;6.82;100.00;10251.38;5094530;28;20192;-60
2023/03/27 00:32:44;;;;;;;19.13;14.57;;;;;;;6.81;100.00;9295.56;5094587;28;20180;-59
2023/03/27 00:35:12;;;;;;;17.93;14.23;;;;;;;6.99;100.00;6433.16;5094876;28;20188;-61
2023/03/27 00:37:39;;;;;;;20.80;14.30;;;;;;;6.93;100.00;7387.25;5094360;28;20187;-59
2023/03/27 00:40:12;;;;;;;22.30;14.67;;;;;;;6.94;100.00;5795.88;5094740;28;20218;-60
2023/03/27 00:42:39;;;;;;;20.07;14.73;;;;;;;6.92;100.00;5795.59;5094327;28;20184;-60
2023/03/27 00:45:07;;;;;;;16.40;14.37;;;;;;;6.88;100.00;4840.75;5094379;28;20188;-59
2023/03/27 00:47:37;;;;;;;22.67;14.80;;;;;;;6.58;100.00;7381.34;5094575;28;20211;-59
2023/03/27 00:50:10;;;;;;;23.10;14.33;;;;;;;6.86;100.00;4840.47;5094415;28;20253;-60
2023/03/27 00:52:39;;;;;;;30.90;15.57;;;;;;;6.67;100.00;6110.13;5094262;28;20245;-59
2023/03/27 00:55:09;;;;;;;25.90;14.87;;;;;;;6.49;100.00;6107.50;5094194;28;20635;-60
2023/03/27 00:57:40;;;;;;;23.97;14.70;;;;;;;6.44;100.00;2928.38;5094113;28;20658;-59
2023/03/27 01:00:12;;;;;;;24.97;15.50;;;;;;;6.64;100.00;1659.41;5094314;28;20261;-61
2023/03/27 01:02:40;;;;;;;20.30;14.07;;;;;;;6.69;100.00;-880.69;5093923;28;20193;-59
2023/03/27 01:05:10;;;;;;;27.20;14.60;;;;;;;6.47;100.00;-564.13;5094248;28;20188;-59
2023/03/27 01:07:38;;;;;;;20.47;14.23;;;;;;;6.70;100.00;-1515.47;5094205;28;20196;-59
2023/03/27 01:10:06;;;;;;;20.10;14.07;;;;;;;6.72;100.00;-2150.16;5093966;28;20559;-60
2023/03/27 01:12:45;;;;;;;26.90;13.63;;;;;;;6.12;100.00;-882.72;5094108;28;20749;-59
2023/03/27 01:15:22;;;;;;;31.57;12.90;;;;;;;6.40;100.00;-1199.00;5094032;28;20567;-60
2023/03/27 01:18:13;;;;;;;17.57;11.60;;;;;;;6.37;100.00;-247.22;5093649;28;20206;-59
2023/03/27 01:21:18;;;;;;;16.67;12.43;;;;;;;6.33;100.00;-564.69;5091976;28;20192;-58
2023/03/27 01:24:19;;;;;;;17.67;11.67;;;;;;;6.33;100.00;-1199.19;5094170;28;20188;-60
2023/03/27 01:26:58;;;;;;;17.33;11.10;;;;;;;6.49;100.00;-881.41;5084769;28;20200;-59
2023/03/27 01:29:36;;;;;;;23.90;10.83;;;;;;;6.35;100.00;387.44;5093851;28;20184;-59
2023/03/27 01:32:37;;;;;;;15.70;10.63;;;;;;;6.26;100.00;386.94;5093998;28;20192;-61
2023/03/27 01:35:37;;;;;;;12.23;9.50;;;;;;;5.69;100.00;1652.16;5093875;28;20194;-59
2023/03/27 01:38:24;;;;;;;18.83;10.10;;;;;;;5.76;100.00;1018.34;5093458;28;20195;-59
2023/03/27 01:40:59;;;;;;;16.87;8.60;;;;;;;5.50;100.00;1650.75;5093622;28;20187;-60
2023/03/27 01:43:33;;;;;;;14.53;9.80;;;;;;;5.58;100.00;1017.13;5093192;28;20188;-60
2023/03/27 01:46:07;;;;;;;12.17;9.47;;;;;;;5.64;100.00;1651.78;5093596;28;20187;-58
2023/03/27 01:48:40;;;;;;;11.27;10.30;;;;;;;5.67;100.00;1652.03;5093165;28;20180;-59
2023/03/27 01:51:12;;;;;;;13.20;10.23;;;;;;;5.68;100.00;1969.28;5093037;28;20187;-59
2023/03/27 01:53:46;;;;;;;21.03;8.97;;;;;;;5.70;100.00;2286.63;5092994;28;20188;-59
2023/03/27 01:56:25;;;;;;;15.23;9.97;;;;;;;5.68;100.00;1652.06;5092048;28;20677;-59
2023/03/27 01:58:55;;;;;;;17.57;11.00;;;;;;;5.74;100.00;2604.28;5092864;28;20211;-59
2023/03/27 02:01:28;;;;;;;22.90;12.70;;;;;;;5.84;100.00;1653.34;5092933;28;20189;-59
2023/03/27 02:03:59;;;;;;;18.47;14.07;;;;;;;6.07;100.00;385.84;5093124;28;20620;-60
2023/03/27 02:06:32;;;;;;;20.77;14.20;;;;;;;6.21;100.00;69.31;5092949;28;20207;-60
2023/03/27 02:09:03;;;;;;;15.57;13.93;;;;;;;6.20;100.00;1656.03;5093073;28;20184;-60
2023/03/27 02:11:36;;;;;;;16.67;14.67;;;;;;;6.28;100.00;387.03;5092427;28;20232;-59
2023/03/27 02:14:06;;;;;;;15.33;11.83;;;;;;;6.55;100.00;1341.16;5092964;28;20188;-59
2023/03/27 02:16:36;;;;;;;18.53;12.90;;;;;;;6.35;100.00;10559.69;5092857;28;20188;-58
2023/03/27 02:19:07;;;;;;;19.80;11.23;;;;;;;6.22;100.00;11511.72;5092804;28;20284;-59
2023/03/27 02:21:34;;;;;;;15.77;10.70;;;;;;;6.05;100.00;8644.22;5092549;28;20180;-60
2023/03/27 02:24:01;;;;;;;16.93;11.47;;;;;;;5.57;100.00;7999.59;5092400;28;20194;-62
2023/03/27 02:26:29;;;;;;;11.73;10.67;;;;;;;5.57;100.00;4823.81;5092395;28;20192;-60
2023/03/27 02:29:13;;;;;;;16.00;11.23;;;;;;;5.38;100.00;3869.66;5092494;28;20195;-61
2023/03/27 02:31:53;;;;;;;17.07;11.07;;;;;;;4.80;100.00;3863.16;5092348;28;20195;-62
2023/03/27 02:34:33;;;;;;;16.60;11.57;;;;;;;5.11;100.00;3549.53;5092575;28;20566;-62
2023/03/27 02:37:08;;;;;;;16.43;11.90;;;;;;;5.11;100.00;3866.56;5091573;28;20184;-61
2023/03/27 02:39:41;;;;;;;16.60;11.97;;;;;;;5.34;100.00;5772.94;5092337;28;20227;-61
2023/03/27 02:42:15;;;;;;;15.13;13.27;;;;;;;5.32;100.00;6407.47;5092109;28;20198;-60
2023/03/27 02:44:51;;;;;;;18.73;13.63;;;;;;;5.47;100.00;7362.59;5092369;28;20635;-62
2023/03/27 02:47:25;;;;;;;16.57;13.17;;;;;;;5.51;100.00;8634.03;5092119;28;20241;-60
2023/03/27 02:49:58;;;;;;;19.07;12.67;;;;;;;5.54;100.00;9905.84;5092004;28;20184;-61
2023/03/27 02:52:31;;;;;;;21.57;12.70;;;;;;;5.56;100.00;9588.38;5091946;28;20190;-61
2023/03/27 02:55:05;;;;;;;17.57;13.87;;;;;;;5.72;100.00;8002.31;5092322;28;20188;-61
2023/03/27 02:57:38;;;;;;;20.03;13.47;;;;;;;5.77;100.00;7049.88;5092282;28;20226;-61
2023/03/27 03:00:24;;;;;;;31.20;16.10;;;;;;;5.56;100.00;6411.13;5091742;28;20204;-62
2023/03/27 03:02:54;;;;;;;25.83;15.33;;;;;;;5.79;100.00;6414.78;5091830;28;20271;-60
2023/03/27 03:05:23;;;;;;;21.77;15.27;;;;;;;6.00;100.00;8643.25;5092071;28;20188;-60
2023/03/27 03:07:53;;;;;;;25.03;14.77;;;;;;;6.05;100.00;11189.34;5092239;28;20654;-61
2023/03/27 03:10:20;;;;;;;25.10;14.10;;;;;;;5.94;100.00;15988.72;5091591;28;20187;-61
2023/03/27 03:12:47;;;;;;;15.70;14.17;;;;;;;5.78;100.00;15321.69;5091889;28;20682;-61
2023/03/27 03:15:17;;;;;;;17.87;14.40;;;;;;;5.96;100.00;14707.34;5091686;28;20191;-60
2023/03/27 03:17:44;;;;;;;26.57;14.27;;;;;;;5.65;100.00;12134.59;5091927;28;20208;-61
2023/03/27 03:20:13;;;;;;;24.23;14.73;;;;;;;5.65;100.00;8954.47;5091287;28;20646;-62
2023/03/27 03:22:40;;;;;;;18.80;14.10;;;;;;;5.83;100.00;6415.41;5091615;28;20241;-60
2023/03/27 03:25:09;;;;;;;16.80;15.03;;;;;;;5.88;100.00;4827.91;5092184;28;20650;-60
2023/03/27 03:27:36;;;;;;;20.23;16.67;;;;;;;5.95;100.00;2606.25;5092214;28;20249;-60
2023/03/27 03:30:04;;;;;;;18.43;16.47;;;;;;;6.22;100.00;1021.41;5091439;28;20187;-61
2023/03/27 03:32:34;;;;;;;21.67;16.13;;;;;;;6.30;100.00;704.53;5091817;28;20184;-60
2023/03/27 03:35:01;;;;;;;39.23;18.27;;;;;;;6.22;100.00;4196.72;5091647;28;20180;-62
2023/03/27 03:37:28;;;;;;;36.60;22.83;;;;;;;6.15;100.00;4831.25;5091544;28;20186;-62
2023/03/27 03:39:57;;;;;;;43.13;23.27;;;;;;;6.24;100.00;5468.00;5091778;28;20586;-61
2023/03/27 03:42:24;;;;;;;49.63;25.53;;;;;;;6.31;100.00;6104.78;5091922;28;20623;-61
2023/03/27 03:44:51;;;;;;;40.73;22.20;;;;;;;6.28;100.00;6422.25;5091286;28;20188;-61
2023/03/27 03:47:18;;;;;;;32.27;21.93;;;;;;;6.20;100.00;6103.13;5091764;28;20184;-62
2023/03/27 03:49:46;;;;;;;41.40;21.80;;;;;;;6.43;100.00;6424.59;5094671;28;20186;-60
2023/03/27 03:52:13;;;;;;;26.00;19.17;;;;;;;6.43;100.00;7060.66;5095816;28;20623;-61
2023/03/27 03:54:40;;;;;;;25.07;18.90;;;;;;;6.39;100.00;6741.97;5095591;28;20646;-61
2023/03/27 03:57:07;;;;;;;19.17;16.23;;;;;;;6.57;100.00;6744.78;5095358;28;20188;-60
2023/03/27 03:59:34;;;;;;;28.97;18.43;;;;;;;6.59;100.00;6745.19;5095412;28;20662;-60
2023/03/27 04:02:01;;;;;;;50.73;18.73;;;;;;;6.60;100.00;7699.88;5095487;28;20194;-60
2023/03/27 04:04:29;;;;;;;82.60;20.53;;;;;;;6.47;100.00;7697.50;5095400;28;20562;-62
2023/03/27 04:06:57;;;;;;;77.37;23.27;;;;;;;6.31;100.00;6104.78;5095312;28;20206;-61
2023/03/27 04:09:25;;;;;;;54.40;24.30;;;;;;;6.31;100.00;4197.81;5095125;28;20180;-61
2023/03/27 04:11:52;;;;;;;53.80;22.90;;;;;;;6.28;100.00;2609.22;5094800;28;20285;-61
2023/03/27 04:14:27;;;;;;;48.87;20.53;;;;;;;6.09;100.00;1337.84;5095260;28;20627;-61
2023/03/27 04:16:55;;;;;;;40.13;18.17;;;;;;;6.15;100.00;1338.25;5095374;28;20219;-61
2023/03/27 04:19:22;;;;;;;62.33;17.43;;;;;;;6.47;100.00;-564.13;5095146;28;20235;-60
2023/03/27 04:21:51;;;;;;;56.30;18.27;;;;;;;6.18;100.00;-882.50;5095247;28;20532;-61
2023/03/27 04:24:19;;;;;;;59.60;17.03;;;;;;;6.54;100.00;-1833.16;5094921;28;20184;-61
2023/03/27 04:26:46;;;;;;;50.67;17.17;;;;;;;6.77;100.00;-2784.72;5095114;28;20649;-60
2023/03/27 04:29:13;;;;;;;51.37;15.63;;;;;;;6.95;100.00;-3102.03;5095035;28;20204;-60
2023/03/27 04:31:45;;;;;;;33.60;15.13;;;;;;;7.00;100.00;-2784.63;5094933;28;20188;-60
2023/03/27 04:34:12;;;;;;;29.27;14.17;;;;;;;7.28;100.00;-3419.53;5094452;28;20192;-62
2023/03/27 04:36:38;;;;;;;17.87;13.97;;;;;;;7.62;100.00;-4054.97;5094456;28;20215;-61
2023/03/27 04:39:09;;;;;;;27.93;15.83;;;;;;;7.93;100.00;-4055.44;5094659;28;20188;-61
2023/03/27 04:41:37;;;;;;;23.57;14.90;;;;;;;8.35;100.00;-3738.06;5094455;28;20189;-61
2023/03/27 04:44:05;;;;;;;33.00;15.57;;;;;;;8.32;100.00;-556.50;5094487;28;20194;-60
2023/03/27 04:46:31;;;;;;;18.07;15.07;;;;;;;8.59;100.00;3268.28;5094557;28;20555;-60
2023/03/27 04:48:59;;;;;;;21.50;15.67;;;;;;;8.83;100.00;13172.88;5094235;28;20199;-61
2023/03/27 04:51:26;;;;;;;25.00;16.00;;;;;;;9.86;100.00;18973.06;5094209;28;20185;-60
2023/03/27 04:53:56;;;;;;;34.43;16.77;;;;;;;11.35;100.00;14188.41;5094487;28;20188;-62
2023/03/27 04:56:23;;;;;;;21.90;13.97;;;;;;;12.36;100.00;-1820.56;5094519;28;20642;-62
2023/03/27 04:58:52;;;;;;;21.13;13.13;;;;;;;13.01;100.00;49227.44;5094413;28;20191;-62
2023/03/27 05:01:19;;;;;;;77.67;16.27;;;;;;;12.95;100.00;99394.13;5093403;28;20200;-61
2023/03/27 05:03:47;;;;;;;38.10;13.97;;;;;;;12.43;100.00;116179.72;5094220;28;20184;-61
2023/03/27 05:06:15;;;;;;;37.57;14.67;;;;;;;12.03;100.00;97921.97;5094299;28;20631;-61
2023/03/27 05:08:41;;;;;;;20.87;13.43;;;;;;;11.67;100.00;73891.63;5094084;28;20184;-59
2023/03/27 05:11:09;;;;;;;35.27;14.70;;;;;;;11.41;100.00;60801.56;5093619;28;20239;-60
2023/03/27 05:13:36;;;;;;;17.50;13.00;;;;;;;11.12;100.00;46795.38;5093756;28;20188;-60
2023/03/27 05:16:05;;;;;;;41.60;13.40;;;;;;;11.23;100.00;36439.81;5093721;28;20271;-59
2023/03/27 05:18:32;;;;;;;26.10;13.60;;;;;;;11.02;100.00;33195.22;5093740;28;20188;-59
2023/03/27 05:21:00;;;;;;;23.93;13.53;;;;;;;11.39;100.00;36774.03;5093805;28;20239;-60
2023/03/27 05:23:27;;;;;;;23.23;12.60;;;;;;;11.20;100.00;36761.56;5093937;28;20678;-61
2023/03/27 05:25:55;;;;;;;35.30;14.10;;;;;;;11.64;100.00;38408.66;5093923;28;20192;-61
2023/03/27 05:28:22;;;;;;;28.43;13.57;;;;;;;12.27;100.00;49814.69;5093688;28;20312;-61
2023/03/27 05:30:49;;;;;;;29.67;13.67;;;;;;;12.86;100.00;79948.00;5093302;28;20215;-61
2023/03/27 05:33:17;;;;;;;42.00;13.73;;;;;;;13.40;100.00;120357.75;5092154;28;20196;-61
2023/03/27 05:35:46;;;;;;;31.97;13.40;;;;;;;13.56;100.00;149447.63;5093905;28;20211;-61
2023/03/27 05:38:13;;;;;;;50.33;18.63;;;;;;;13.07;100.00;139288.41;5093446;28;20623;-61
2023/03/27 05:40:40;;;;;;;49.13;15.63;;;;;;;12.56;100.00;103623.09;5093155;28;20210;-61
2023/03/27 05:43:09;;;;;;;34.37;14.13;;;;;;;12.65;100.00;81232.78;5092977;28;20188;-61
2023/03/27 05:45:36;;;;;;;17.03;11.70;;;;;;;12.64;100.00;66811.34;5092873;28;20184;-60
2023/03/27 05:48:04;;;;;;;28.67;13.43;;;;;;;12.57;100.00;60269.22;5092714;28;20274;-60
2023/03/27 05:50:35;;;;;;;24.60;16.23;;;;;;;12.29;100.00;56002.06;5092784;28;20222;-60
2023/03/27 05:53:04;;;;;;;50.63;18.43;;;;;;;12.39;100.00;49174.19;5092996;28;20284;-61
2023/03/27 05:55:31;;;;;;;40.90;16.90;;;;;;;12.13;100.00;43954.88;5092576;28;20277;-60
2023/03/27 05:57:58;;;;;;;55.07;17.53;;;;;;;12.24;100.00;45587.41;5092787;28;20192;-60
2023/03/27 06:00:26;;;;;;;53.77;21.37;;;;;;;12.31;100.00;47217.59;5092802;28;20670;-60
2023/03/27 06:02:55;;;;;;;67.43;24.17;;;;;;;12.46;100.00;48204.53;5092774;28;20192;-62
2023/03/27 06:05:21;;;;;;;55.23;20.93;;;;;;;12.54;100.00;49187.06;5092407;28;20188;-60
2023/03/27 06:07:50;;;;;;;59.40;22.67;;;;;;;12.40;100.00;46899.59;5092063;28;20200;-60
2023/03/27 06:10:19;;;;;;;53.40;22.17;;;;;;;12.11;100.00;43628.75;5092103;28;20210;-61
2023/03/27 06:12:46;;;;;;;67.30;23.27;;;;;;;12.58;100.00;39445.13;5091474;28;20647;-61
2023/03/27 06:15:14;;;;;;;42.47;21.80;;;;;;;12.74;100.00;46601.91;5092363;28;20188;-62
2023/03/27 06:17:42;;;;;;;42.73;20.40;;;;;;;12.83;100.00;52794.41;5092254;28;20605;-61
2023/03/27 06:20:11;;;;;;;37.30;20.93;;;;;;;12.68;100.00;55386.97;5092348;28;20208;-61
2023/03/27 06:22:41;;;;;;;55.10;20.70;;;;;;;12.20;100.00;36826.44;5092399;28;20633;-61
2023/03/27 06:25:10;;;;;;;41.40;19.90;;;;;;;12.25;100.00;24864.38;5092021;28;20188;-61
2023/03/27 06:27:38;;;;;;;72.87;25.30;;;;;;;12.21;100.00;20346.59;5092205;28;20199;-60
2023/03/27 06:30:07;;;;;;;51.17;24.43;;;;;;;12.48;100.00;20679.31;5091926;28;20177;-62
2023/03/27 06:32:35;;;;;;;49.27;28.70;;;;;;;12.28;100.00;32945.84;5091230;28;20195;-61
2023/03/27 06:35:02;;;;;;;57.97;27.37;;;;;;;12.05;100.00;27760.78;5092124;28;20180;-61
2023/03/27 06:37:32;;;;;;;47.60;25.87;;;;;;;11.86;100.00;23233.88;5091824;28;20254;-61
2023/03/27 06:40:00;;;;;;;59.97;24.27;;;;;;;12.17;100.00;19055.84;5091607;28;20210;-60
2023/03/27 06:42:28;;;;;;;60.77;26.00;;;;;;;12.47;100.00;20033.78;5090485;28;20191;-62
2023/03/27 06:44:55;;;;;;;42.97;24.60;;;;;;;12.80;100.00;29739.09;5091554;28;20211;-61
2023/03/27 06:47:22;;;;;;;49.83;23.47;;;;;;;12.68;100.00;36857.22;5091857;28;20211;-61
2023/03/27 06:49:49;;;;;;;31.23;18.23;;;;;;;12.64;100.00;39448.97;5091883;28;20554;-61
2023/03/27 06:52:16;;;;;;;30.70;15.40;;;;;;;12.95;100.00;46619.06;5092133;28;20499;-61
2023/03/27 06:54:46;;;;;;;27.10;13.90;;;;;;;13.09;100.00;61629.81;5091663;28;20184;-61
2023/03/27 06:57:14;;;;;;;33.00;13.63;;;;;;;13.99;100.00;81417.78;5089016;28;20188;-61
2023/03/27 06:59:43;;;;;;;27.50;12.50;;;;;;;14.78;100.00;149753.16;5067261;28;20223;-61
2023/03/27 07:02:11;;;;;;;23.57;12.80;;;;;;;15.38;100.00;149904.13;5082596;28;20200;-62
2023/03/27 07:04:38;;;;;;;26.03;11.27;;;;;;;16.00;100.00;150060.25;5090426;28;20192;-62
2023/03/27 07:07:05;;;;;;;19.53;9.33;;;;;;;15.79;100.00;150006.94;5089030;28;20207;-62
2023/03/27 07:09:32;;;;;;;9.93;9.07;;;;;;;15.80;100.00;150009.50;5091001;28;20606;-61
2023/03/27 07:11:59;;;;;;;11.50;8.93;;;;;;;15.51;100.00;149935.88;5090437;28;20227;-62
2023/03/27 07:14:26;;;;;;;8.23;7.43;;;;;;;15.66;100.00;149973.94;5090340;28;20180;-62
2023/03/27 07:16:54;;;;;;;8.63;7.80;;;;;;;16.16;100.00;150098.38;5090185;28;20210;-64
2023/03/27 07:19:21;;;;;;;14.27;7.90;;;;;;;16.42;100.00;150164.38;5090737;28;20192;-63
2023/03/27 07:21:48;;;;;;;7.33;6.97;;;;;;;16.20;100.00;150108.50;5091637;28;20207;-63
2023/03/27 07:24:15;;;;;;;14.43;8.47;;;;;;;16.73;100.00;150243.16;5090953;28;20562;-62
2023/03/27 07:26:43;;;;;;;6.07;5.77;;;;;;;16.24;100.00;150118.66;5091043;28;20226;-62
2023/03/27 07:29:16;;;;;;;9.57;7.70;;;;;;;15.98;100.00;150053.94;5090475;28;20295;-61
2023/03/27 07:31:43;;;;;;;6.83;6.17;;;;;;;16.70;100.00;150235.53;5091171;28;20203;-62
2023/03/27 07:34:12;;;;;;;9.27;7.40;;;;;;;16.78;100.00;150255.84;5091527;28;20185;-59
2023/03/27 07:36:38;;;;;;;9.80;8.77;;;;;;;16.61;100.00;150212.66;5091030;28;20218;-62
2023/03/27 07:39:07;;;;;;;6.60;6.23;;;;;;;16.39;100.00;150158.00;5091415;28;20188;-62
2023/03/27 07:41:34;;;;;;;9.17;8.37;;;;;;;16.15;100.00;150095.81;5091367;28;20309;-62
2023/03/27 07:44:01;;;;;;;8.30;7.57;;;;;;;15.96;100.00;150048.81;5091581;28;20264;-62
2023/03/27 07:46:28;;;;;;;10.37;8.00;;;;;;;15.43;100.00;149916.81;5090880;28;20276;-62
2023/03/27 07:48:55;;;;;;;11.83;6.77;;;;;;;15.69;100.00;149981.59;5089464;28;20200;-62
2023/03/27 07:51:26;;;;;;;7.47;6.83;;;;;;;15.28;100.00;149877.44;5090958;28;20646;-61
2023/03/27 07:53:57;;;;;;;6.40;6.03;;;;;;;15.44;100.00;149918.09;5090895;28;20184;-62
2023/03/27 07:56:25;;;;;;;6.00;5.80;;;;;;;15.69;100.00;149980.31;5091255;28;20230;-62
2023/03/27 07:58:54;;;;;;;13.33;7.23;;;;;;;15.48;100.00;149929.50;5091209;28;20601;-63
2023/03/27 08:01:20;;;;;;;6.57;5.90;;;;;;;15.56;100.00;149948.59;5091338;28;20270;-63
2023/03/27 08:03:48;;;;;;;6.23;5.93;;;;;;;14.76;100.00;149746.84;5091332;28;20188;-62
2023/03/27 08:06:15;;;;;;;6.60;6.07;;;;;;;14.80;100.00;149758.25;5091094;28;20196;-62
2023/03/27 08:08:44;;;;;;;6.50;6.10;;;;;;;15.25;100.00;149871.13;5091396;28;20233;-61
2023/03/27 08:11:11;;;;;;;6.23;6.03;;;;;;;14.95;100.00;149796.28;5091508;28;20601;-62
2023/03/27 08:13:39;;;;;;;6.73;6.33;;;;;;;14.74;100.00;149743.00;5090900;28;20279;-63
2023/03/27 08:16:09;;;;;;;7.07;6.57;;;;;;;14.84;100.00;149768.41;5090560;28;20188;-62
2023/03/27 08:18:36;;;;;;;8.00;7.50;;;;;;;14.75;100.00;149745.56;5090128;28;20188;-62
2023/03/27 08:21:05;;;;;;;11.17;7.60;;;;;;;14.94;100.00;149793.75;5089777;28;20211;-62
2023/03/27 08:23:33;;;;;;;7.10;6.77;;;;;;;14.42;100.00;149661.88;5090976;28;20192;-62
2023/03/27 08:26:02;;;;;;;7.67;7.13;;;;;;;14.55;100.00;149694.84;5091019;28;20267;-62
2023/03/27 08:28:30;;;;;;;7.17;6.50;;;;;;;14.55;100.00;149694.84;5091380;28;20631;-62
2023/03/27 08:30:57;;;;;;;7.67;7.17;;;;;;;14.58;100.00;149703.72;5090958;28;20271;-62
2023/03/27 08:33:26;;;;;;;7.43;7.07;;;;;;;14.71;100.00;149734.16;5091112;28;20241;-62
2023/03/27 08:35:55;;;;;;;8.30;7.53;;;;;;;14.72;100.00;149737.97;5092665;28;20244;-59
2023/03/27 08:38:23;;;;;;;8.27;7.67;;;;;;;15.23;100.00;149864.81;5094246;28;20185;-61
2023/03/27 08:40:57;;;;;;;7.80;7.30;;;;;;;15.32;100.00;149887.66;5094337;28;20565;-62
2023/03/27 08:43:29;;;;;;;7.40;6.97;;;;;;;15.65;100.00;149970.16;5094479;28;20188;-62
2023/03/27 08:46:02;;;;;;;6.30;5.97;;;;;;;15.85;100.00;150020.91;5094394;28;20550;-63
2023/03/27 08:48:36;;;;;;;7.40;6.90;;;;;;;15.72;100.00;149987.91;5094739;28;20192;-63
2023/03/27 08:51:07;;;;;;;9.03;7.27;;;;;;;15.92;100.00;150039.94;5094015;28;20262;-63
2023/03/27 08:53:47;;;;;;;7.73;7.43;;;;;;;16.19;100.00;150107.25;5094180;28;20191;-62
2023/03/27 08:56:15;;;;;;;7.13;6.30;;;;;;;16.31;100.00;150137.69;5093898;28;20199;-63
2023/03/27 08:58:44;;;;;;;6.70;6.40;;;;;;;16.25;100.00;150122.44;5094124;28;20219;-62
2023/03/27 09:01:19;;;;;;;7.10;6.60;;;;;;;15.94;100.00;150043.78;5093963;28;20253;-62
2023/03/27 09:03:51;;;;;;;6.70;6.20;;;;;;;16.06;100.00;150072.94;5094290;28;20190;-62
2023/03/27 09:06:25;;;;;;;7.33;6.70;;;;;;;16.08;100.00;150079.34;5094067;28;20195;-62
2023/03/27 09:09:01;;;;;;;7.73;7.10;;;;;;;15.95;100.00;150047.56;5093810;28;20652;-62
2023/03/27 09:11:38;;;;;;;9.60;9.03;;;;;;;15.64;100.00;149967.63;5093843;28;20227;-62
2023/03/27 09:14:13;;;;;;;8.50;7.90;;;;;;;15.37;100.00;149900.28;5093955;28;20309;-62
2023/03/27 09:16:48;;;;;;;8.67;8.27;;;;;;;15.24;100.00;149867.31;5094171;28;20190;-62
2023/03/27 09:19:24;;;;;;;9.47;8.63;;;;;;;14.45;100.00;149669.47;5094197;28;20699;-61
2023/03/27 09:21:56;;;;;;;9.23;8.83;;;;;;;14.37;100.00;149650.47;5093996;28;20527;-62
2023/03/27 09:24:29;;;;;;;10.80;10.17;;;;;;;13.91;100.00;149535.06;5093892;28;20188;-61
2023/03/27 09:26:57;;;;;;;12.77;11.80;;;;;;;13.54;100.00;122716.53;5093394;28;20195;-61
2023/03/27 09:29:30;;;;;;;12.27;11.33;;;;;;;13.37;100.00;88574.03;5093085;28;20315;-62
2023/03/27 09:31:58;;;;;;;13.37;12.37;;;;;;;13.21;100.00;65566.59;5093139;28;20190;-61
2023/03/27 09:34:27;;;;;;;14.50;13.33;;;;;;;13.57;100.00;63642.72;5092998;28;20607;-61
2023/03/27 09:36:57;;;;;;;13.67;12.27;;;;;;;14.07;100.00;87359.75;5093416;28;20655;-62
2023/03/27 09:39:28;;;;;;;14.50;13.30;;;;;;;14.42;100.00;113576.78;5093366;28;20188;-61
2023/03/27 09:41:59;;;;;;;14.67;13.43;;;;;;;14.98;100.00;149803.88;5092891;28;20214;-62
2023/03/27 09:44:30;;;;;;;13.83;12.83;;;;;;;15.66;100.00;149972.72;5093285;28;20274;-61
2023/03/27 09:47:03;;;;;;;14.23;13.20;;;;;;;15.51;100.00;149935.88;5093028;28;20195;-61
2023/03/27 09:49:30;;;;;;;15.27;13.90;;;;;;;16.17;100.00;150100.84;5093247;28;20191;-61
2023/03/27 09:51:58;;;;;;;15.17;13.70;;;;;;;15.73;100.00;149991.75;5093206;28;20659;-62
2023/03/27 09:54:28;;;;;;;13.80;12.70;;;;;;;15.53;100.00;149941.00;5092584;28;20190;-62
2023/03/27 09:57:00;;;;;;;13.83;12.80;;;;;;;15.89;100.00;150031.06;5093076;28;20541;-60
2023/03/27 09:59:32;;;;;;;12.47;11.37;;;;;;;15.99;100.00;150057.75;5093553;28;20599;-61
2023/03/27 10:02:08;;;;;;;15.90;14.57;;;;;;;16.20;100.00;150108.50;5092807;28;20204;-61
2023/03/27 10:04:35;;;;;;;15.30;14.03;;;;;;;16.31;100.00;150136.44;5092837;28;20209;-61
2023/03/27 10:07:05;;;;;;;14.47;13.47;;;;;;;16.71;100.00;150238.09;5092796;28;20654;-61
2023/03/27 10:09:34;;;;;;;15.00;13.50;;;;;;;16.77;100.00;150253.31;5092561;28;20657;-61
2023/03/27 10:12:08;;;;;;;16.93;14.90;;;;;;;17.10;100.00;150334.63;5092272;28;20231;-61
2023/03/27 10:14:40;;;;;;;18.27;14.93;;;;;;;17.64;100.00;150471.91;5092534;28;20184;-61
2023/03/27 10:17:15;;;;;;;15.33;13.80;;;;;;;17.49;100.00;150432.44;5092435;28;20192;-61
2023/03/27 10:19:42;;;;;;;14.63;13.63;;;;;;;17.32;100.00;150390.50;5092208;28;20287;-62
2023/03/27 10:22:18;;;;;;;14.07;13.07;;;;;;;17.23;100.00;150367.63;5092242;28;20200;-62
2023/03/27 10:24:47;;;;;;;14.97;13.23;;;;;;;17.58;100.00;150456.63;5092657;28;20523;-62
2023/03/27 10:27:20;;;;;;;13.87;12.53;;;;;;;16.95;100.00;150296.50;5092497;28;20184;-60
2023/03/27 10:29:48;;;;;;;17.53;15.43;;;;;;;17.03;100.00;150318.09;5092311;28;20188;-62
2023/03/27 10:32:17;;;;;;;16.43;14.80;;;;;;;17.64;100.00;150470.63;5091901;28;20191;-62
2023/03/27 10:34:54;;;;;;;16.90;14.53;;;;;;;18.17;100.00;150605.34;5091903;28;20275;-61
2023/03/27 10:37:28;;;;;;;14.93;13.73;;;;;;;17.02;100.00;150314.25;5092257;28;20578;-61
2023/03/27 10:40:00;;;;;;;15.27;13.83;;;;;;;16.44;100.00;150169.44;5092170;28;20203;-62
2023/03/27 10:42:32;;;;;;;20.80;15.87;;;;;;;16.22;100.00;150114.84;5091809;28;20242;-61
2023/03/27 10:45:01;;;;;;;18.23;16.10;;;;;;;16.71;100.00;150236.81;5092098;28;20196;-61
2023/03/27 10:47:32;;;;;;;17.10;15.27;;;;;;;16.48;100.00;150178.31;5090831;28;20627;-62
2023/03/27 10:50:10;;;;;;;20.40;15.77;;;;;;;16.41;100.00;150161.84;5092080;28;20188;-62
2023/03/27 10:52:50;;;;;;;19.60;16.07;;;;;;;16.53;100.00;150192.31;5091775;28;20183;-62
2023/03/27 10:55:33;;;;;;;16.90;15.27;;;;;;;17.14;100.00;150346.03;5091900;28;20191;-61
2023/03/27 10:58:22;;;;;;;19.03;13.13;;;;;;;16.75;100.00;150248.25;5091087;28;20195;-61
2023/03/27 11:00:54;;;;;;;21.67;17.67;;;;;;;17.04;100.00;150319.38;5091569;28;20192;-61
2023/03/27 11:03:28;;;;;;;19.63;17.63;;;;;;;18.15;100.00;150600.28;5091494;28;20180;-61
2023/03/27 11:05:55;;;;;;;26.53;17.63;;;;;;;18.45;100.00;150674.03;5091772;28;20224;-62
2023/03/27 11:08:30;;;;;;;24.07;17.43;;;;;;;17.91;100.00;150539.22;5091454;28;20191;-61
2023/03/27 11:11:00;;;;;;;21.20;16.20;;;;;;;17.40;100.00;150409.59;5090327;28;20251;-62
2023/03/27 11:13:31;;;;;;;22.87;16.80;;;;;;;16.47;100.00;150177.06;5091961;28;20546;-60
2023/03/27 11:16:10;;;;;;;29.00;18.40;;;;;;;15.82;100.00;150014.59;5091844;28;20195;-62
2023/03/27 11:18:44;;;;;;;21.93;19.10;;;;;;;15.42;100.00;149913.00;5091307;28;20187;-62
2023/03/27 11:21:15;;;;;;;19.40;16.37;;;;;;;14.43;100.00;149664.38;5091264;28;20184;-61
2023/03/27 11:23:49;;;;;;;33.43;19.30;;;;;;;14.43;100.00;149664.38;5089895;28;20219;-61
2023/03/27 11:26:18;;;;;;;24.33;18.50;;;;;;;13.88;100.00;149527.44;5091390;28;20197;-62
2023/03/27 11:28:51;;;;;;;27.87;19.20;;;;;;;13.77;100.00;112455.31;5091286;28;20225;-61